Terminal Aerodrome Forecast
Issued by NWS Shreveport, LA

Home | Current Version | Previous Version | Text Only | Print | Product List | Glossary On
Versions: 1 2 3 4 5 6 7 8 9 10 11 12 13
000
FTUS44 KSHV 221121
TAFGGG
TAF
KGGG 221121Z 2212/2312 35007KT P6SM SKC
     FM221800 01010KT P6SM SCT250
     FM230000 34003KT P6SM SCT250
     FM230600 00000KT P6SM FEW250=

USA.gov is the U.S. government's official web portal to all federal, state and local government web resources and services.